Time;durP1;ratioP1;P1;durP2;ratioP2;P2;SDS_P1;SDS_P2;PMS_P1;PMS_P2;Temp;Humidity;BMP_temperature;BMP_pressure;BME280_temperature;BME280_humidity;BME280_pressure;Samples;Min_cycle;Max_cycle;Signal;HPM_P1;HPM_P2
2023/10/04 00:01:37;;;;;;;7.80;2.90;;;;;;;10.57;100.00;100027.13;4996935;28;20022;-76
2023/10/04 00:04:03;;;;;;;5.68;2.60;;;;;;;10.42;100.00;100015.31;4992264;28;20026;-77
2023/10/04 00:06:31;;;;;;;5.15;2.83;;;;;;;10.27;100.00;100004.31;4993434;28;20029;-77
2023/10/04 00:08:56;;;;;;;5.55;2.83;;;;;;;10.13;100.00;99997.75;4995542;28;20112;-76
2023/10/04 00:11:21;;;;;;;3.88;2.15;;;;;;;9.88;100.00;99969.91;4995009;28;20443;-76
2023/10/04 00:13:47;;;;;;;8.57;2.63;;;;;;;10.14;100.00;100017.50;4995109;28;20113;-76
2023/10/04 00:16:13;;;;;;;7.53;2.40;;;;;;;9.93;100.00;100004.50;4992531;28;20037;-76
2023/10/04 00:18:38;;;;;;;4.18;2.60;;;;;;;9.86;100.00;99994.38;4999569;28;20021;-76
2023/10/04 00:21:06;;;;;;;5.38;2.70;;;;;;;9.98;100.00;100007.56;4994378;28;20061;-76
2023/10/04 00:23:32;;;;;;;10.50;2.75;;;;;;;10.03;100.00;100024.13;4993534;28;20113;-76
2023/10/04 00:25:57;;;;;;;7.05;2.40;;;;;;;10.07;100.00;100028.19;4993120;28;20029;-77
2023/10/04 00:28:22;;;;;;;7.88;3.10;;;;;;;9.95;100.00;100018.72;4994792;28;20029;-76
2023/10/04 00:30:47;;;;;;;7.15;2.55;;;;;;;9.90;100.00;100021.06;4999103;28;20367;-76
2023/10/04 00:33:13;;;;;;;6.75;2.75;;;;;;;9.89;100.00;100039.16;5001353;28;20022;-76
2023/10/04 00:35:40;;;;;;;6.95;2.47;;;;;;;9.85;100.00;100025.16;4996015;28;20018;-76
2023/10/04 00:38:07;;;;;;;6.45;2.63;;;;;;;9.65;100.00;100000.28;4997460;28;20022;-76
2023/10/04 00:40:33;;;;;;;9.75;3.40;;;;;;;9.67;100.00;99989.34;4997065;28;20026;-76
2023/10/04 00:43:13;;;;;;;4.78;2.78;;;;;;;10.01;100.00;100031.56;4994032;28;20030;-77
2023/10/04 00:45:39;;;;;;;7.72;2.60;;;;;;;9.91;100.00;100039.00;4990899;28;20482;-76
2023/10/04 00:48:11;;;;;;;6.65;2.58;;;;;;;9.82;100.00;100021.91;4994905;28;20023;-76
2023/10/04 00:50:38;;;;;;;4.95;2.25;;;;;;;9.84;100.00;100028.84;4993342;28;20172;-76
2023/10/04 00:53:09;;;;;;;9.05;2.88;;;;;;;9.69;100.00;99998.09;4995443;28;20033;-76
2023/10/04 00:55:40;;;;;;;7.32;2.20;;;;;;;9.81;100.00;100042.69;4993959;28;20037;-75
2023/10/04 00:58:07;;;;;;;4.78;2.58;;;;;;;9.66;100.00;100025.47;4992951;28;20544;-76
2023/10/04 01:00:34;;;;;;;6.22;2.75;;;;;;;9.61;100.00;100035.91;4992795;28;20405;-76
2023/10/04 01:02:59;;;;;;;5.10;2.63;;;;;;;9.54;100.00;100034.91;4993072;28;20018;-76
2023/10/04 01:05:27;;;;;;;6.13;2.67;;;;;;;9.44;100.00;100024.25;4992167;28;20030;-76
2023/10/04 01:07:56;;;;;;;7.05;2.53;;;;;;;9.27;100.00;99990.94;4993479;28;20141;-76
2023/10/04 01:10:32;;;;;;;;;;;;;;;9.61;100.00;100033.22;4994460;28;20034;-76
2023/10/04 01:12:59;;;;;;;8.98;2.47;;;;;;;9.54;100.00;99999.78;5000321;28;19937;-77
2023/10/04 01:17:50;;;;;;;6.53;3.10;;;;;;;9.58;100.00;100003.84;4994522;28;20023;-76
2023/10/04 01:20:16;;;;;;;5.45;2.92;;;;;;;9.60;100.00;100015.34;4993699;28;20030;-76
2023/10/04 01:22:41;;;;;;;7.20;2.55;;;;;;;9.56;100.00;100024.75;4993021;28;20022;-76
2023/10/04 01:25:11;;;;;;;7.05;2.67;;;;;;;9.55;100.00;100025.78;4987431;28;20033;-76
2023/10/04 01:27:38;;;;;;;6.35;3.50;;;;;;;9.45;100.00;100025.94;4993373;28;20509;-76
2023/10/04 01:30:05;;;;;;;7.05;2.78;;;;;;;9.57;100.00;100042.69;4992565;28;20062;-76
2023/10/04 01:32:31;;;;;;;5.78;2.67;;;;;;;9.49;100.00;100043.50;4996023;28;20116;-76
2023/10/04 01:34:56;;;;;;;7.05;3.05;;;;;;;9.38;100.00;100014.97;5050048;23;20061;-73
2023/10/04 01:37:22;;;;;;;9.95;3.05;;;;;;;9.43;100.00;100042.31;5031405;28;20034;-73
2023/10/04 01:39:47;;;;;;;5.10;2.53;;;;;;;9.43;100.00;100036.06;5030300;28;20022;-74
2023/10/04 01:42:12;;;;;;;7.72;3.13;;;;;;;9.31;100.00;100026.59;5027711;28;20119;-74
2023/10/04 01:44:37;;;;;;;6.00;2.75;;;;;;;9.40;100.00;100045.34;5024854;28;20528;-73
2023/10/04 01:47:03;;;;;;;4.97;3.17;;;;;;;9.43;100.00;100036.06;5021416;28;20101;-73
2023/10/04 01:49:29;;;;;;;6.05;2.58;;;;;;;9.59;100.00;100055.03;5029407;28;20499;-74
2023/10/04 01:51:54;;;;;;;5.50;2.67;;;;;;;9.54;100.00;100035.75;5017442;28;20365;-73
2023/10/04 01:54:19;;;;;;;5.57;2.35;;;;;;;9.53;100.00;100036.75;5024032;28;20093;-73
2023/10/04 01:56:45;;;;;;;8.23;2.35;;;;;;;9.39;100.00;100038.25;5021521;28;20022;-74
2023/10/04 01:59:13;;;;;;;4.53;2.13;;;;;;;9.39;100.00;100038.25;5021658;28;20608;-73
2023/10/04 02:01:40;;;;;;;6.20;2.05;;;;;;;9.47;100.00;100042.00;5022567;28;20026;-73
2023/10/04 02:04:06;;;;;;;10.18;2.70;;;;;;;9.46;100.00;100046.56;5026800;28;20025;-73
2023/10/04 02:06:33;;;;;;;6.70;2.28;;;;;;;9.42;100.00;100042.47;5027674;28;20034;-73
2023/10/04 02:09:00;;;;;;;4.93;2.00;;;;;;;9.38;100.00;100033.88;5018346;28;20036;-73
2023/10/04 02:11:25;;;;;;;4.97;2.38;;;;;;;9.39;100.00;100032.84;5028564;28;20100;-73
2023/10/04 02:13:52;;;;;;;5.40;2.25;;;;;;;9.44;100.00;100026.97;5023240;28;20205;-74
2023/10/04 02:16:19;;;;;;;7.75;2.70;;;;;;;9.65;100.00;100040.84;5027231;28;20029;-74
2023/10/04 02:18:46;;;;;;;5.10;2.10;;;;;;;9.82;100.00;100052.53;5016335;28;20076;-73
2023/10/04 02:21:12;;;;;;;7.30;2.30;;;;;;;9.83;100.00;100046.09;5021484;28;20040;-74
2023/10/04 02:23:38;;;;;;;4.72;2.08;;;;;;;9.87;100.00;100047.44;5014799;28;20109;-75
2023/10/04 02:26:06;;;;;;;5.07;2.22;;;;;;;9.77;100.00;100033.25;5019214;28;20108;-73
2023/10/04 02:28:33;;;;;;;6.60;1.77;;;;;;;9.80;100.00;100032.91;5022778;28;20041;-73
2023/10/04 02:30:59;;;;;;;5.07;2.17;;;;;;;9.79;100.00;100049.28;5017919;28;20052;-73
2023/10/04 02:33:32;;;;;;;5.72;1.73;;;;;;;9.61;100.00;100035.91;5030635;28;20018;-73
2023/10/04 02:35:57;;;;;;;3.45;1.55;;;;;;;9.63;100.00;100044.72;5014687;28;20526;-74
2023/10/04 02:38:33;;;;;;;5.15;1.80;;;;;;;9.58;100.00;100045.22;5018568;28;20030;-74
2023/10/04 02:40:59;;;;;;;5.90;2.00;;;;;;;9.38;100.00;100052.78;5011213;28;20029;-74
2023/10/04 02:43:25;;;;;;;5.53;1.50;;;;;;;9.25;100.00;100054.22;5029428;28;20037;-73
2023/10/04 02:45:52;;;;;;;5.88;1.70;;;;;;;9.09;100.00;100034.31;5015645;28;20512;-74
2023/10/04 02:48:19;;;;;;;3.92;1.95;;;;;;;9.17;100.00;100049.69;5024996;28;20024;-74
2023/10/04 02:50:45;;;;;;;3.85;2.10;;;;;;;9.13;100.00;100056.41;5021805;28;20036;-73
2023/10/04 02:53:16;;;;;;;6.22;1.90;;;;;;;9.15;100.00;100060.63;5016177;28;20030;-73
2023/10/04 02:55:42;;;;;;;4.85;2.05;;;;;;;9.26;100.00;100062.19;5017903;28;20069;-74
2023/10/04 02:58:09;;;;;;;6.47;2.40;;;;;;;9.29;100.00;100063.72;5021733;28;20065;-73
2023/10/04 03:00:45;;;;;;;5.10;2.00;;;;;;;9.19;100.00;100061.13;5022667;28;20036;-74
2023/10/04 03:03:19;;;;;;;6.25;2.38;;;;;;;9.04;100.00;100046.56;5022706;28;20028;-74
2023/10/04 03:05:45;;;;;;;5.22;1.73;;;;;;;9.05;100.00;100054.53;5019948;28;20715;-73
2023/10/04 03:08:10;;;;;;;4.80;1.98;;;;;;;9.00;100.00;100051.47;5034514;28;20021;-73
2023/10/04 03:10:37;;;;;;;4.32;2.00;;;;;;;8.91;100.00;100045.19;5030392;28;20025;-73
2023/10/04 03:13:10;;;;;;;4.82;1.70;;;;;;;8.88;100.00;100063.53;5019207;28;20025;-74
2023/10/04 03:15:37;;;;;;;4.90;2.00;;;;;;;8.81;100.00;100059.81;5021852;28;20030;-73
2023/10/04 03:18:13;;;;;;;9.40;2.10;;;;;;;8.70;100.00;100052.84;5031042;28;20029;-74
2023/10/04 03:20:42;;;;;;;5.22;1.90;;;;;;;8.62;100.00;100048.25;5029295;28;20436;-73
2023/10/04 03:23:11;;;;;;;;;;;;;;;8.73;100.00;100058.75;5021419;28;20371;-74
2023/10/04 03:25:36;;;;;;;5.97;2.65;;;;;;;8.61;100.00;100049.25;5021035;28;19920;-73
2023/10/04 03:28:02;;;;;;;6.78;2.22;;;;;;;8.71;100.00;100065.31;5023729;28;20484;-73
2023/10/04 03:30:28;;;;;;;4.35;2.33;;;;;;;8.72;100.00;100053.50;5018128;28;20030;-73
2023/10/04 03:32:55;;;;;;;4.80;2.55;;;;;;;8.64;100.00;100045.38;5019882;28;20530;-74
2023/10/04 03:35:21;;;;;;;6.30;2.50;;;;;;;8.68;100.00;100050.31;5028855;28;20484;-74
2023/10/04 03:37:54;;;;;;;7.90;2.45;;;;;;;8.55;100.00;100047.19;5024035;28;20026;-74
2023/10/04 03:40:21;;;;;;;5.30;1.88;;;;;;;8.50;100.00;100053.06;5023237;28;20100;-73
2023/10/04 03:42:46;;;;;;;5.18;2.50;;;;;;;8.63;100.00;100059.88;5028825;28;20034;-73
2023/10/04 03:45:12;;;;;;;7.30;2.53;;;;;;;8.67;100.00;100067.50;5024482;28;20112;-74
2023/10/04 03:47:39;;;;;;;4.13;2.70;;;;;;;8.65;100.00;100050.63;5024478;28;20072;-73
2023/10/04 03:50:09;;;;;;;8.52;2.70;;;;;;;8.73;100.00;100069.56;5024721;28;20076;-73
2023/10/04 03:52:34;;;;;;;6.07;2.67;;;;;;;8.64;100.00;100061.56;5017774;28;20029;-73
2023/10/04 03:55:00;;;;;;;8.10;2.80;;;;;;;8.56;100.00;100057.81;5027116;28;20025;-74
2023/10/04 03:57:25;;;;;;;7.03;2.25;;;;;;;8.53;100.00;100055.44;5030424;28;20117;-74
2023/10/04 03:59:51;;;;;;;6.13;2.72;;;;;;;8.50;100.00;100061.16;5020538;28;20029;-73
2023/10/04 04:02:16;;;;;;;12.05;2.45;;;;;;;8.37;100.00;100040.97;5016360;28;20076;-73
2023/10/04 04:04:42;;;;;;;6.82;2.55;;;;;;;8.41;100.00;100062.13;5025063;28;20211;-74
2023/10/04 04:07:07;;;;;;;7.25;2.72;;;;;;;8.39;100.00;100064.13;5030797;28;20495;-74
2023/10/04 04:09:33;;;;;;;5.47;2.30;;;;;;;8.27;100.00;100068.88;5022234;28;20028;-74
2023/10/04 04:11:58;;;;;;;4.35;2.38;;;;;;;8.17;100.00;100072.69;5028955;28;20028;-74
2023/10/04 04:14:23;;;;;;;5.13;2.10;;;;;;;8.21;100.00;100057.91;5027656;28;20024;-74
2023/10/04 04:16:51;;;;;;;7.03;2.75;;;;;;;8.20;100.00;100069.66;5027846;28;20060;-74
2023/10/04 04:19:19;;;;;;;5.75;2.55;;;;;;;8.23;100.00;100074.78;5028715;28;20018;-74
2023/10/04 04:21:44;;;;;;;6.75;2.67;;;;;;;8.21;100.00;100063.28;5022503;28;20118;-74
2023/10/04 04:24:10;;;;;;;6.63;3.00;;;;;;;8.17;100.00;100070.81;5025158;28;20459;-74
2023/10/04 04:26:35;;;;;;;11.02;3.55;;;;;;;8.16;100.00;100071.00;5026833;28;20473;-73
2023/10/04 04:29:00;;;;;;;8.65;3.05;;;;;;;8.13;100.00;100066.75;5020129;28;20029;-73
2023/10/04 04:31:26;;;;;;;6.25;2.83;;;;;;;8.17;100.00;100072.69;5046420;28;20033;-74
2023/10/04 04:33:53;;;;;;;5.43;2.65;;;;;;;8.15;100.00;100063.91;5027824;28;20033;-73
2023/10/04 04:36:25;;;;;;;10.07;2.33;;;;;;;8.05;100.00;100067.53;5023761;28;20022;-74
2023/10/04 04:38:51;;;;;;;9.15;2.90;;;;;;;7.94;100.00;100059.72;5021237;28;20481;-74
2023/10/04 04:41:21;;;;;;;10.40;2.72;;;;;;;7.94;100.00;100069.63;5023366;28;20045;-75
2023/10/04 04:43:49;;;;;;;4.93;2.03;;;;;;;7.88;100.00;100071.94;5023630;28;20026;-73
2023/10/04 04:46:16;;;;;;;10.32;2.72;;;;;;;7.90;100.00;100069.94;5019714;28;20104;-71
2023/10/04 04:48:42;;;;;;;6.28;2.20;;;;;;;7.73;100.00;100081.59;5030049;28;20033;-76
2023/10/04 04:51:11;;;;;;;8.23;2.42;;;;;;;7.62;100.00;100071.00;5033519;28;20071;-76
2023/10/04 04:53:41;;;;;;;6.35;2.50;;;;;;;7.67;100.00;100074.94;5034155;28;20117;-76
2023/10/04 04:56:17;;;;;;;4.65;2.25;;;;;;;7.75;100.00;100076.88;5022610;28;20022;-76
2023/10/04 04:58:44;;;;;;;7.82;2.42;;;;;;;7.77;100.00;100082.09;5030983;28;20164;-74
2023/10/04 05:01:11;;;;;;;7.60;2.90;;;;;;;7.62;100.00;100071.00;5024879;28;20053;-74
2023/10/04 05:03:41;;;;;;;14.05;2.80;;;;;;;7.61;100.00;100072.88;5033861;28;20028;-74
2023/10/04 05:06:07;;;;;;;8.90;2.40;;;;;;;7.50;100.00;100073.09;5034615;28;20029;-74
2023/10/04 05:08:32;;;;;;;9.85;3.10;;;;;;;7.50;100.00;100088.41;5035391;28;20056;-76
2023/10/04 05:10:59;;;;;;;5.80;2.70;;;;;;;7.46;100.00;100079.78;5024187;28;20052;-75
2023/10/04 05:13:25;;;;;;;15.75;2.88;;;;;;;7.44;100.00;100073.69;5015923;28;20113;-74
2023/10/04 05:15:50;;;;;;;15.95;2.33;;;;;;;7.40;100.00;100073.16;5023759;28;20036;-75
2023/10/04 05:18:17;;;;;;;4.90;2.63;;;;;;;7.47;100.00;100094.94;5016975;28;20022;-76
2023/10/04 05:20:50;;;;;;;16.50;3.83;;;;;;;7.49;100.00;100071.38;5031648;28;20026;-75
2023/10/04 05:23:17;;;;;;;6.40;2.80;;;;;;;7.63;100.00;100067.34;5028931;28;20037;-77
2023/10/04 05:25:42;;;;;;;11.48;2.90;;;;;;;7.57;100.00;100057.16;5059158;28;20033;-74
2023/10/04 05:28:12;;;;;;;11.38;3.20;;;;;;;7.52;100.00;100064.84;5047706;28;20002;-73
2023/10/04 05:30:38;;;;;;;;;;;;;;;7.58;100.00;100083.94;5042662;28;20048;-72
2023/10/04 05:33:04;;;;;;;6.38;2.88;;;;;;;7.49;100.00;100089.41;5049157;28;19902;-77
2023/10/04 05:35:29;;;;;;;4.93;2.00;;;;;;;7.46;100.00;100087.84;5041942;28;20028;-74
2023/10/04 05:37:55;;;;;;;5.10;2.63;;;;;;;7.52;100.00;100098.03;5041762;28;20037;-71
2023/10/04 05:40:26;;;;;;;13.95;2.22;;;;;;;7.50;100.00;100094.63;5039597;28;20034;-77
2023/10/04 05:42:55;;;;;;;6.50;2.20;;;;;;;7.49;100.00;100084.84;5029874;28;20477;-72
2023/10/04 05:45:21;;;;;;;;;;;;;;;7.74;100.00;100091.34;5024270;28;20076;-72
2023/10/04 05:47:48;;;;;;;6.07;2.65;;;;;;;7.71;100.00;100080.03;5019670;28;20426;-72
2023/10/04 05:50:17;;;;;;;6.57;2.55;;;;;;;7.86;100.00;100091.97;5026343;28;20052;-74
2023/10/04 05:52:43;;;;;;;;;;;;;;;7.97;100.00;100097.13;5031907;28;20033;-72
2023/10/04 05:55:09;;;;;;;6.93;3.08;;;;;;;8.05;100.00;100099.88;5024778;28;19920;-73
2023/10/04 05:57:35;;;;;;;9.70;3.03;;;;;;;8.28;100.00;100111.03;5016413;28;20033;-73
2023/10/04 06:00:21;;;;;;;3.90;2.00;;;;;;;9.29;100.00;100088.84;5027666;28;20094;-73
2023/10/04 06:02:47;;;;;;;7.18;1.63;;;;;;;11.41;100.00;100111.41;5022364;28;20372;-78
2023/10/04 06:05:14;;;;;;;6.18;2.20;;;;;;;12.14;100.00;100064.03;5031230;28;20036;-73
2023/10/04 06:07:39;;;;;;;2.88;1.52;;;;;;;12.62;100.00;100031.16;5034190;28;20045;-77
2023/10/04 06:10:05;;;;;;;6.30;1.52;;;;;;;12.28;100.00;100024.38;5028024;28;20037;-75
2023/10/04 06:12:30;;;;;;;7.47;2.25;;;;;;;13.39;100.00;100022.59;5033115;28;20075;-78
2023/10/04 06:14:59;;;;;;;7.45;1.83;;;;;;;14.21;100.00;100013.97;5027862;28;20384;-77
2023/10/04 06:17:24;;;;;;;14.68;2.03;;;;;;;15.64;100.00;99994.34;5023851;28;20432;-73
2023/10/04 06:19:54;;;;;;;12.35;1.77;;;;;;;16.54;100.00;100009.31;5027706;28;20030;-76
2023/10/04 06:22:19;;;;;;;;;;;;;;;17.73;100.00;100010.72;5022950;28;20034;-78
2023/10/04 06:24:45;;;;;;;4.50;1.50;;;;;;;18.82;100.00;100008.59;5042450;28;19920;-74
2023/10/04 06:27:11;;;;;;;10.93;1.35;;;;;;;19.95;100.00;99999.94;5022876;28;20329;-72
2023/10/04 06:29:36;;;;;;;5.50;1.48;;;;;;;20.35;100.00;100019.34;5015310;28;20029;-72
2023/10/04 06:32:01;;;;;;;5.85;1.15;;;;;;;21.00;100.00;100021.97;5021276;28;20029;-75
2023/10/04 06:34:28;;;;;;;8.15;1.17;;;;;;;21.59;84.81;100013.59;5018089;28;20101;-76
2023/10/04 06:36:53;;;;;;;3.15;1.27;;;;;;;21.30;84.98;100020.13;5023695;28;20025;-76
2023/10/04 06:39:18;;;;;;;8.05;1.40;;;;;;;22.36;72.47;100009.44;5018577;28;20032;-75
2023/10/04 06:41:44;;;;;;;7.38;2.40;;;;;;;21.91;68.79;100026.03;5027408;28;20030;-74
2023/10/04 06:44:10;;;;;;;7.22;1.98;;;;;;;23.61;67.63;100022.75;5018635;28;20084;-72
2023/10/04 06:46:36;;;;;;;6.57;1.77;;;;;;;23.72;62.67;100015.44;5022179;28;20037;-75
2023/10/04 06:49:02;;;;;;;8.15;2.25;;;;;;;23.93;60.20;100027.53;5025390;28;20604;-76
2023/10/04 06:51:28;;;;;;;7.70;2.47;;;;;;;24.03;59.76;100019.34;5023112;28;20021;-76
2023/10/04 06:53:53;;;;;;;6.50;1.70;;;;;;;24.16;59.78;100018.06;5029350;28;20030;-76
2023/10/04 06:56:18;;;;;;;3.15;1.40;;;;;;;22.82;64.72;100034.13;5030891;28;20025;-75
2023/10/04 06:58:43;;;;;;;5.22;1.23;;;;;;;23.12;65.20;100028.22;5019967;28;20083;-76
2023/10/04 07:01:10;;;;;;;13.85;2.15;;;;;;;23.91;64.82;100046.28;5021738;28;20033;-76
2023/10/04 07:03:35;;;;;;;10.15;2.08;;;;;;;23.69;63.70;100038.84;5018137;28;20421;-76
2023/10/04 07:06:00;;;;;;;5.70;1.95;;;;;;;22.32;66.19;100033.06;5026621;28;20041;-76
2023/10/04 07:08:32;;;;;;;3.22;1.60;;;;;;;19.57;99.22;100048.63;5020604;28;20034;-75
2023/10/04 07:11:00;;;;;;;5.28;2.40;;;;;;;21.02;99.15;100036.34;5022112;28;20496;-75
2023/10/04 07:13:25;;;;;;;5.22;1.73;;;;;;;22.66;77.87;100030.28;5018882;28;20033;-75
2023/10/04 07:15:51;;;;;;;4.13;1.88;;;;;;;22.39;78.19;100041.19;5013997;28;20466;-73
2023/10/04 07:18:16;;;;;;;3.08;1.38;;;;;;;23.53;74.61;100037.84;5021742;28;20022;-73
2023/10/04 07:20:42;;;;;;;4.63;1.65;;;;;;;25.35;64.65;100037.97;5021659;28;20025;-78
2023/10/04 07:23:10;;;;;;;4.55;1.90;;;;;;;26.30;59.18;100050.66;5028576;28;20018;-73
2023/10/04 07:25:37;;;;;;;4.43;1.80;;;;;;;25.65;58.73;100047.47;5015537;28;20416;-76
2023/10/04 07:28:04;;;;;;;6.85;1.75;;;;;;;24.86;60.70;100043.75;5018626;28;20026;-76
2023/10/04 07:30:31;;;;;;;5.60;1.83;;;;;;;24.55;63.12;100043.59;5016777;28;20502;-75
2023/10/04 07:32:59;;;;;;;4.10;1.67;;;;;;;24.61;61.94;100045.28;5021665;28;20125;-76
2023/10/04 07:35:26;;;;;;;3.93;1.87;;;;;;;25.86;58.38;100040.94;5049845;23;20057;-76
2023/10/04 07:37:52;;;;;;;6.22;2.17;;;;;;;25.86;56.89;100043.72;5043481;28;20098;-74
2023/10/04 07:40:20;;;;;;;6.07;1.95;;;;;;;26.96;54.57;100056.19;5051734;28;20393;-75
2023/10/04 07:42:46;;;;;;;7.75;2.03;;;;;;;27.90;52.43;100063.91;5049425;28;20400;-74
2023/10/04 07:45:13;;;;;;;5.70;2.08;;;;;;;26.72;53.65;100044.00;5042409;28;20435;-76
2023/10/04 07:47:43;;;;;;;6.85;1.80;;;;;;;29.09;50.15;100054.31;5028310;28;20018;-76
2023/10/04 07:50:11;;;;;;;4.18;1.80;;;;;;;30.02;47.70;100060.34;5032120;28;20048;-77
2023/10/04 07:52:37;;;;;;;5.72;1.95;;;;;;;29.37;47.62;100060.09;5035191;28;20577;-77
2023/10/04 07:55:05;;;;;;;3.88;1.88;;;;;;;30.28;46.79;100059.97;5034433;28;20392;-74
2023/10/04 07:57:31;;;;;;;4.47;1.98;;;;;;;31.52;43.70;100065.84;5034118;28;20468;-74
2023/10/04 07:59:57;;;;;;;6.00;2.22;;;;;;;31.40;43.09;100062.72;5029214;28;20034;-77
2023/10/04 08:02:23;;;;;;;4.22;1.92;;;;;;;31.44;43.43;100061.81;5032702;28;20383;-76
2023/10/04 08:04:48;;;;;;;4.40;1.67;;;;;;;31.30;41.70;100052.53;5035608;28;20029;-76
2023/10/04 08:07:15;;;;;;;3.40;1.65;;;;;;;29.03;45.04;100070.22;5034233;28;20021;-75
2023/10/04 08:09:41;;;;;;;3.05;1.60;;;;;;;30.18;43.50;100048.94;5033733;28;20030;-75
2023/10/04 08:12:07;;;;;;;3.90;1.42;;;;;;;30.34;43.64;100054.03;5033354;28;20022;-75
2023/10/04 08:14:33;;;;;;;4.78;1.75;;;;;;;29.70;43.73;100061.94;5030035;28;20025;-70
2023/10/04 08:16:59;;;;;;;4.07;1.70;;;;;;;31.02;42.90;100048.91;5030383;28;20040;-76
2023/10/04 08:19:24;;;;;;;3.85;1.58;;;;;;;31.62;41.61;100043.25;5032192;28;20068;-77
2023/10/04 08:21:50;;;;;;;4.20;1.80;;;;;;;31.28;42.61;100048.41;5037605;28;20400;-76
2023/10/04 08:24:15;;;;;;;4.68;1.65;;;;;;;30.11;43.02;100046.56;5030267;28;20033;-77
2023/10/04 08:26:41;;;;;;;4.47;1.70;;;;;;;30.44;42.39;100049.38;5028293;28;20377;-71
2023/10/04 08:29:06;;;;;;;4.07;1.70;;;;;;;29.95;43.31;100050.69;5027001;28;20079;-71
2023/10/04 08:31:33;;;;;;;5.93;1.50;;;;;;;31.50;41.04;100054.13;5023903;28;20447;-74
2023/10/04 08:33:58;;;;;;;4.82;1.60;;;;;;;32.92;39.26;100043.41;5029886;28;20022;-78
2023/10/04 08:36:24;;;;;;;4.88;1.73;;;;;;;32.35;40.05;100043.22;5031084;28;20021;-74
2023/10/04 08:38:49;;;;;;;3.55;1.38;;;;;;;33.23;39.71;100030.56;5024216;28;20408;-76
2023/10/04 08:41:16;;;;;;;5.22;1.40;;;;;;;33.41;37.45;100037.03;5032381;28;20048;-73
2023/10/04 08:43:44;;;;;;;4.80;1.30;;;;;;;32.69;38.05;100033.41;5030822;28;20512;-74
2023/10/04 08:46:09;;;;;;;5.03;1.70;;;;;;;34.79;36.64;100032.59;5024011;28;20497;-74
2023/10/04 08:48:35;;;;;;;4.22;1.40;;;;;;;35.63;34.40;100028.09;5045400;28;20057;-71
2023/10/04 08:51:01;;;;;;;3.72;1.13;;;;;;;34.31;34.63;100044.94;5033464;28;20062;-71
2023/10/04 08:53:48;;;;;;;4.25;1.08;;;;;;;33.57;35.21;100033.47;5032865;28;20025;-72
2023/10/04 08:56:15;;;;;;;4.57;1.00;;;;;;;32.23;37.60;100027.00;5024900;28;20459;-74
2023/10/04 08:58:43;;;;;;;3.78;1.00;;;;;;;33.46;36.25;100011.59;5030535;28;20144;-74
2023/10/04 09:01:11;;;;;;;4.22;0.98;;;;;;;33.56;34.62;100028.16;5030593;28;20038;-75
2023/10/04 09:03:40;;;;;;;4.43;1.25;;;;;;;31.90;36.57;100023.56;5018575;28;20076;-75
2023/10/04 09:06:10;;;;;;;4.05;1.15;;;;;;;32.27;36.18;100029.97;5032375;28;20156;-76
2023/10/04 09:08:38;;;;;;;3.63;0.85;;;;;;;31.25;37.14;100029.47;5030317;28;20072;-77
2023/10/04 09:11:10;;;;;;;3.17;1.07;;;;;;;33.35;35.55;100011.94;5027413;28;20045;-77
2023/10/04 09:13:47;;;;;;;3.20;1.02;;;;;;;32.16;36.71;100003.38;5026676;28;20043;-77
2023/10/04 09:16:20;;;;;;;3.53;1.07;;;;;;;32.99;35.35;100000.06;5027602;28;20099;-76
2023/10/04 09:18:45;;;;;;;4.43;0.80;;;;;;;33.56;34.81;100005.72;5024714;28;20283;-73
2023/10/04 09:21:15;;;;;;;5.00;0.80;;;;;;;34.02;34.12;100004.28;5029522;28;20079;-71
2023/10/04 09:23:43;;;;;;;2.88;0.90;;;;;;;36.60;32.34;100007.22;5026486;28;20064;-71
2023/10/04 09:26:15;;;;;;;;;;;;;;;36.47;31.59;100010.31;5023501;28;20029;-72
2023/10/04 09:28:40;;;;;;;3.55;1.10;;;;;;;37.89;30.45;100007.81;5028936;28;20430;-71
2023/10/04 09:31:10;;;;;;;3.17;1.00;;;;;;;36.58;31.50;100009.56;5035543;28;20032;-71
2023/10/04 09:33:36;;;;;;;2.60;0.80;;;;;;;37.96;30.51;100008.00;5030423;28;20030;-71
2023/10/04 09:36:01;;;;;;;2.92;0.98;;;;;;;37.36;30.62;100004.94;5031176;28;20033;-72
2023/10/04 09:38:29;;;;;;;4.20;0.95;;;;;;;34.45;32.75;99997.78;5025093;28;20072;-71
2023/10/04 09:40:59;;;;;;;2.58;0.93;;;;;;;36.77;31.31;99985.63;5034387;28;20053;-72
2023/10/04 09:43:37;;;;;;;3.13;1.30;;;;;;;36.14;32.24;99999.91;5032323;28;20052;-72
2023/10/04 09:46:07;;;;;;;3.92;1.10;;;;;;;36.32;32.36;99998.53;5038480;28;20056;-72
2023/10/04 09:48:33;;;;;;;3.00;0.90;;;;;;;35.87;31.50;99999.28;5040042;28;20027;-72
2023/10/04 09:51:01;;;;;;;5.57;1.38;;;;;;;37.90;30.86;99989.66;5029845;28;20029;-72
2023/10/04 09:53:26;;;;;;;3.20;1.17;;;;;;;37.70;30.33;99989.50;5028679;28;20471;-72
2023/10/04 09:55:53;;;;;;;3.95;0.90;;;;;;;38.27;29.69;99983.88;5031853;28;20286;-72
2023/10/04 09:58:24;;;;;;;2.25;0.85;;;;;;;35.03;31.04;99999.09;5031871;28;20021;-72
2023/10/04 10:00:52;;;;;;;3.75;1.27;;;;;;;33.16;34.29;99986.13;5026115;28;20116;-72
2023/10/04 10:03:25;;;;;;;6.05;1.25;;;;;;;29.26;38.51;99996.09;5045593;28;20021;-71
2023/10/04 10:05:53;;;;;;;4.55;1.10;;;;;;;33.66;35.29;99980.16;5027849;28;20033;-71
2023/10/04 10:08:20;;;;;;;5.43;1.10;;;;;;;36.48;31.94;99984.63;5029272;28;20047;-72
2023/10/04 10:10:47;;;;;;;4.45;1.00;;;;;;;37.84;30.00;99963.69;5034104;28;20025;-72
2023/10/04 10:13:15;;;;;;;3.05;0.90;;;;;;;36.76;30.77;99979.19;5032280;28;20025;-72
2023/10/04 10:15:41;;;;;;;3.70;1.00;;;;;;;33.08;33.47;99992.56;5026221;28;20064;-72
2023/10/04 10:18:07;;;;;;;4.38;1.13;;;;;;;33.27;34.08;99979.06;5022145;28;20366;-72
2023/10/04 10:20:34;;;;;;;2.35;1.08;;;;;;;35.71;31.92;99984.16;5031346;28;20388;-72
2023/10/04 10:22:59;;;;;;;2.85;1.00;;;;;;;38.62;30.45;99988.88;5032007;28;20025;-72
2023/10/04 10:25:25;;;;;;;5.53;1.00;;;;;;;40.74;28.68;99981.97;5033819;28;20063;-72
2023/10/04 10:28:01;;;;;;;2.92;0.90;;;;;;;38.04;29.83;99987.28;5035751;28;20067;-72
2023/10/04 10:30:28;;;;;;;3.72;0.82;;;;;;;34.47;33.02;99996.28;5027764;28;20033;-73
2023/10/04 10:32:56;;;;;;;2.53;1.00;;;;;;;30.47;37.07;100002.16;5044342;28;20022;-72
2023/10/04 10:35:50;;;;;;;3.53;1.00;;;;;;;30.91;38.50;100006.34;5019993;28;20025;-71
2023/10/04 10:38:27;;;;;;;3.50;0.98;;;;;;;33.28;35.98;100002.34;5031085;28;20026;-72
2023/10/04 10:40:52;;;;;;;2.63;1.05;;;;;;;35.19;32.88;99985.31;5022758;28;20046;-72
2023/10/04 10:43:18;;;;;;;5.57;0.95;;;;;;;36.20;31.21;99979.59;5020227;28;20111;-72
2023/10/04 10:45:43;;;;;;;2.75;0.90;;;;;;;34.00;33.36;99958.84;5024042;28;20034;-72
2023/10/04 10:48:11;;;;;;;3.38;0.82;;;;;;;35.55;32.57;99983.91;5029749;28;20030;-72
2023/10/04 10:50:39;;;;;;;3.58;0.80;;;;;;;37.05;31.34;99980.97;5031672;28;20693;-72
2023/10/04 10:53:07;;;;;;;4.13;0.88;;;;;;;38.94;29.39;99976.44;5014458;28;20021;-72
2023/10/04 10:55:33;;;;;;;3.28;0.90;;;;;;;37.07;29.88;99972.16;5030869;28;20022;-72
2023/10/04 10:57:59;;;;;;;3.45;0.88;;;;;;;39.05;28.69;99981.53;5034592;28;20033;-72
2023/10/04 11:00:32;;;;;;;3.50;0.95;;;;;;;38.93;28.78;99980.44;5040622;28;20388;-72
2023/10/04 11:03:00;;;;;;;1.90;0.75;;;;;;;38.78;28.60;99981.25;5029325;28;20034;-72
2023/10/04 11:05:26;;;;;;;1.77;0.60;;;;;;;40.09;27.43;99968.53;5031562;28;20029;-72
2023/10/04 11:07:54;;;;;;;3.63;0.88;;;;;;;40.76;26.88;99969.41;5031324;28;20022;-72
2023/10/04 11:10:23;;;;;;;3.30;0.80;;;;;;;40.40;26.33;99966.69;5031530;28;20033;-72
2023/10/04 11:12:51;;;;;;;4.55;0.73;;;;;;;39.71;25.90;99969.31;5038988;28;20040;-72
2023/10/04 11:15:20;;;;;;;5.05;0.63;;;;;;;39.74;26.57;99964.94;5029591;28;20056;-72
2023/10/04 11:17:46;;;;;;;1.98;0.60;;;;;;;40.68;25.72;99965.63;5018634;28;20037;-72
2023/10/04 11:20:12;;;;;;;2.03;0.68;;;;;;;40.69;25.59;99953.91;5021660;28;20481;-72
2023/10/04 11:22:44;;;;;;;2.42;0.80;;;;;;;40.29;26.30;99958.00;5026759;28;20045;-72
2023/10/04 11:25:11;;;;;;;1.48;0.50;;;;;;;40.00;26.29;99952.94;5033493;28;20029;-72
2023/10/04 11:27:40;;;;;;;2.50;0.70;;;;;;;41.92;25.42;99940.34;5032851;28;20602;-72
2023/10/04 11:30:07;;;;;;;2.25;0.68;;;;;;;40.73;25.68;99946.25;5030847;28;20396;-72